Time;durP1;ratioP1;P1;durP2;ratioP2;P2;SDS_P1;SDS_P2;PMS_P1;PMS_P2;Temp;Humidity;BMP_temperature;BMP_pressure;BME280_temperature;BME280_humidity;BME280_pressure;Samples;Min_cycle;Max_cycle;Signal;HPM_P1;HPM_P2
2021/12/21 00:02:25;;;;;;;4.90;2.72;;;;;;;17.74;52.63;102930.31;4975481;28;20035;-87
2021/12/21 00:04:51;;;;;;;5.43;2.58;;;;;;;17.75;52.03;102926.88;4974638;28;20101;-85
2021/12/21 00:07:16;;;;;;;5.93;2.97;;;;;;;17.74;52.27;102928.59;4975059;28;20061;-88
2021/12/21 00:09:42;;;;;;;8.10;2.63;;;;;;;17.74;52.12;102922.50;4958599;28;20473;-87
2021/12/21 00:12:13;;;;;;;5.45;2.65;;;;;;;17.73;52.41;102923.38;4975521;28;20030;-87
2021/12/21 00:17:50;;;;;;;5.85;2.97;;;;;;;17.71;52.56;102907.69;4977837;28;20038;-87
2021/12/21 00:23:28;;;;;;;6.78;2.92;;;;;;;17.71;52.25;102909.44;4978462;28;20397;-87
2021/12/21 00:25:48;;;;;;;5.43;3.00;;;;;;;17.70;52.03;102911.13;4979369;28;20069;-86
2021/12/21 00:28:13;;;;;;;5.55;2.90;;;;;;;17.70;52.19;102911.13;4946476;28;20033;-87
2021/12/21 00:30:39;;;;;;;5.50;2.85;;;;;;;17.71;52.16;102912.91;4961895;28;20026;-87
2021/12/21 00:33:04;;;;;;;4.55;2.90;;;;;;;17.71;51.94;102912.03;4962021;28;20133;-86
2021/12/21 00:35:30;;;;;;;4.80;2.65;;;;;;;17.69;52.16;102907.66;4961880;28;20057;-86
2021/12/21 00:37:56;;;;;;;5.07;2.90;;;;;;;17.68;52.05;102908.50;4961877;28;20052;-85
2021/12/21 00:40:22;;;;;;;4.82;2.78;;;;;;;17.68;51.95;102911.13;4946106;28;20430;-86
2021/12/21 00:42:47;;;;;;;4.80;3.10;;;;;;;17.67;51.95;102911.06;4978756;28;20173;-83
2021/12/21 00:45:13;;;;;;;6.22;2.60;;;;;;;17.68;51.87;102910.22;4977966;28;20046;-87
2021/12/21 00:47:41;;;;;;;5.70;2.92;;;;;;;17.67;51.89;102914.53;4977833;28;20473;-85
2021/12/21 00:50:16;;;;;;;5.78;2.60;;;;;;;17.67;52.20;102905.84;4961780;28;20027;-86
2021/12/21 00:52:41;;;;;;;5.45;3.00;;;;;;;17.66;51.80;102902.38;4977506;28;20389;-88
2021/12/21 00:55:07;;;;;;;5.22;2.83;;;;;;;17.66;51.60;102909.31;4945397;28;20035;-86
2021/12/21 00:57:32;;;;;;;6.22;2.80;;;;;;;17.65;51.71;102904.94;4977099;28;20038;-86
2021/12/21 00:59:58;;;;;;;4.53;2.70;;;;;;;17.66;51.93;102910.19;4945016;28;20058;-84
2021/12/21 01:02:25;;;;;;;6.40;3.08;;;;;;;17.64;51.77;102906.69;4944769;28;20034;-84
2021/12/21 01:04:51;;;;;;;6.07;2.83;;;;;;;17.65;51.99;102899.75;4960792;28;20055;-86
2021/12/21 01:07:24;;;;;;;3.90;2.70;;;;;;;17.64;51.57;102898.88;4945372;28;20034;-86
2021/12/21 01:13:25;;;;;;;5.18;2.63;;;;;;;17.64;51.82;102905.81;4978151;28;20034;-85
2021/12/21 01:18:09;;;;;;;5.10;2.75;;;;;;;17.62;51.67;102899.69;4978136;28;20018;-86
2021/12/21 01:20:42;;;;;;;4.70;2.70;;;;;;;17.63;51.63;102893.63;4976743;28;20027;-85
2021/12/21 01:31:02;;;;;;;5.32;2.85;;;;;;;17.60;51.59;102885.75;4977120;28;20042;-82
2021/12/21 01:36:01;;;;;;;4.97;2.47;;;;;;;17.60;51.71;102877.94;4977950;28;20114;-86
2021/12/21 01:41:06;;;;;;;5.40;3.00;;;;;;;17.59;51.54;102871.81;4960393;28;20033;-87
2021/12/21 01:43:48;;;;;;;4.32;2.80;;;;;;;17.58;51.51;102864.00;4962909;28;20026;-82
2021/12/21 01:51:42;;;;;;;5.35;2.60;;;;;;;17.57;51.65;102868.34;4977747;28;20386;-87
2021/12/21 01:54:07;;;;;;;5.65;2.85;;;;;;;17.56;51.38;102868.28;4960466;28;20031;-88
2021/12/21 01:56:32;;;;;;;5.63;3.10;;;;;;;17.57;51.62;102867.44;4960459;28;20027;-87
2021/12/21 01:58:58;;;;;;;4.25;2.63;;;;;;;17.57;51.30;102867.44;4943570;28;20473;-86
2021/12/21 02:01:26;;;;;;;5.68;2.90;;;;;;;17.56;51.41;102869.16;4960183;28;20487;-86
2021/12/21 02:03:52;;;;;;;4.70;2.80;;;;;;;17.54;51.59;102865.66;4975473;28;20076;-86
2021/12/21 02:06:23;;;;;;;4.10;2.67;;;;;;;17.54;51.23;102869.97;4976002;28;20035;-87
2021/12/21 02:08:49;;;;;;;4.30;2.70;;;;;;;17.54;51.59;102864.78;4975410;28;20062;-87
2021/12/21 02:11:15;;;;;;;6.40;2.78;;;;;;;17.52;51.38;102863.84;4943082;28;20390;-86
2021/12/21 02:13:44;;;;;;;4.05;2.60;;;;;;;17.52;51.29;102864.72;4959312;28;20035;-86
2021/12/21 02:16:10;;;;;;;4.63;2.78;;;;;;;17.52;51.39;102864.72;4975129;28;20147;-87
2021/12/21 02:18:51;;;;;;;5.65;2.78;;;;;;;17.53;51.36;102871.72;4958942;28;20068;-86
2021/12/21 02:23:51;;;;;;;4.53;2.60;;;;;;;17.52;51.22;102879.47;4975050;28;20453;-86
2021/12/21 02:26:41;;;;;;;5.50;3.05;;;;;;;17.51;51.25;102872.50;4959149;28;20470;-86
2021/12/21 02:29:24;;;;;;;5.72;2.90;;;;;;;17.50;51.36;102869.03;4974952;28;20034;-88
2021/12/21 02:31:52;;;;;;;5.07;2.80;;;;;;;17.51;51.23;102867.28;4976076;28;20026;-88
2021/12/21 02:34:19;;;;;;;3.83;2.53;;;;;;;17.51;51.30;102864.69;4974786;28;20027;-87
2021/12/21 02:36:47;;;;;;;5.53;2.78;;;;;;;17.50;51.44;102869.03;4942749;28;20027;-87
2021/12/21 02:39:14;;;;;;;5.03;2.50;;;;;;;17.48;51.31;102869.00;4974306;28;20022;-88
2021/12/21 02:41:40;;;;;;;3.65;2.35;;;;;;;17.47;51.26;102867.22;4943085;28;20031;-87
2021/12/21 02:44:06;;;;;;;5.00;2.50;;;;;;;17.47;51.17;102872.44;4959528;28;20061;-88
2021/12/21 02:46:31;;;;;;;4.43;2.40;;;;;;;17.47;51.23;102863.75;4975964;28;20445;-86
2021/12/21 02:48:58;;;;;;;5.35;2.85;;;;;;;17.45;51.21;102860.22;4977172;28;20101;-86
2021/12/21 02:51:24;;;;;;;4.97;2.70;;;;;;;17.46;50.91;102862.88;4978381;28;20461;-86
2021/12/21 02:53:49;;;;;;;4.78;2.78;;;;;;;17.46;51.01;102855.06;4977618;28;20057;-86
2021/12/21 02:56:15;;;;;;;4.68;2.72;;;;;;;17.45;51.01;102853.28;4976672;28;20102;-87
2021/12/21 02:58:42;;;;;;;4.05;2.63;;;;;;;17.44;51.15;102861.06;4975365;28;20073;-86
2021/12/21 03:01:10;;;;;;;5.40;2.70;;;;;;;17.44;51.26;102864.56;4960356;28;20058;-87
2021/12/21 03:03:36;;;;;;;5.15;2.90;;;;;;;17.45;51.02;102865.44;4976446;28;20137;-85
2021/12/21 03:06:05;;;;;;;4.47;2.80;;;;;;;17.44;51.29;102861.97;4960708;28;20141;-86
2021/12/21 03:11:09;;;;;;;4.63;2.53;;;;;;;17.42;51.18;102853.25;4976543;28;20043;-88
2021/12/21 03:14:03;;;;;;;5.30;2.63;;;;;;;17.43;51.18;102851.50;4962121;28;20031;-87
2021/12/21 03:16:30;;;;;;;4.78;2.72;;;;;;;17.43;50.91;102856.72;4977287;28;20113;-88
2021/12/21 03:18:57;;;;;;;4.40;2.60;;;;;;;17.43;50.90;102857.59;4943792;28;20026;-88
2021/12/21 03:21:23;;;;;;;5.47;2.70;;;;;;;17.43;50.87;102854.97;4976987;28;20093;-87
2021/12/21 03:23:48;;;;;;;4.38;2.60;;;;;;;17.42;51.09;102849.72;4976639;28;20022;-88
2021/12/21 03:26:14;;;;;;;3.67;2.42;;;;;;;17.40;50.90;102852.31;4960778;28;20469;-88
2021/12/21 03:28:39;;;;;;;4.28;2.78;;;;;;;17.40;51.29;102844.50;4959986;28;20033;-87
2021/12/21 03:31:06;;;;;;;4.82;2.80;;;;;;;17.39;50.86;102852.28;4975461;28;20102;-87
2021/12/21 03:33:32;;;;;;;4.68;2.75;;;;;;;17.40;51.00;102848.84;4976283;28;20050;-86
2021/12/21 03:36:00;;;;;;;5.63;2.75;;;;;;;17.40;50.91;102844.50;4975094;28;20069;-87
2021/12/21 03:38:26;;;;;;;4.50;2.40;;;;;;;17.38;50.68;102848.81;4959305;28;20054;-85
2021/12/21 03:40:54;;;;;;;3.92;2.35;;;;;;;17.38;51.03;102843.59;4975237;28;20019;-87
2021/12/21 03:43:20;;;;;;;4.90;2.50;;;;;;;17.38;50.83;102848.81;4943672;28;20054;-85
2021/12/21 03:45:55;;;;;;;5.00;2.78;;;;;;;17.38;50.80;102850.53;4976041;28;20110;-87
2021/12/21 03:48:20;;;;;;;7.38;3.00;;;;;;;17.39;50.74;102852.28;4961637;28;20031;-86
2021/12/21 03:50:46;;;;;;;3.45;2.53;;;;;;;17.36;51.18;102849.63;4959695;28;20042;-86
2021/12/21 03:53:12;;;;;;;4.20;2.17;;;;;;;17.36;50.87;102847.88;4964025;28;20106;-86
2021/12/21 03:55:38;;;;;;;4.22;2.72;;;;;;;17.36;50.87;102845.28;4948013;28;20513;-86
2021/12/21 03:58:03;;;;;;;4.75;2.80;;;;;;;17.36;51.07;102847.00;4947719;28;20031;-85
2021/12/21 04:00:29;;;;;;;4.70;2.60;;;;;;;17.37;50.92;102840.94;4963342;28;20503;-84
2021/12/21 04:02:55;;;;;;;5.40;2.78;;;;;;;17.38;50.98;102834.91;4963310;28;20397;-87
2021/12/21 04:05:21;;;;;;;5.45;2.88;;;;;;;17.36;51.02;102832.28;4979253;28;20545;-87
2021/12/21 04:07:46;;;;;;;5.15;2.22;;;;;;;17.36;50.95;102831.41;4984614;28;20015;-87
2021/12/21 04:10:11;;;;;;;4.50;2.63;;;;;;;17.37;50.71;102827.94;4996662;28;20066;-87
2021/12/21 04:12:38;;;;;;;4.68;2.47;;;;;;;17.35;50.85;102835.69;4971308;28;20031;-88
2021/12/21 04:15:06;;;;;;;3.75;2.40;;;;;;;17.35;51.11;102834.81;4965124;28;20026;-87
2021/12/21 04:17:32;;;;;;;4.30;2.60;;;;;;;17.34;50.84;102838.28;4980873;28;20084;-88
2021/12/21 04:19:58;;;;;;;5.93;2.85;;;;;;;17.33;50.73;102829.56;4973910;28;20019;-87
2021/12/21 04:22:23;;;;;;;5.00;2.55;;;;;;;17.32;50.72;102820.03;4973811;28;20062;-88
2021/12/21 04:24:49;;;;;;;4.38;2.42;;;;;;;17.33;50.94;102829.56;4956556;28;20482;-88
2021/12/21 04:27:16;;;;;;;4.40;2.40;;;;;;;17.35;50.88;102821.81;4986057;28;20114;-88
2021/12/21 04:29:42;;;;;;;5.03;2.40;;;;;;;17.34;50.67;102827.88;4981483;28;20166;-89
2021/12/21 04:32:07;;;;;;;4.88;2.58;;;;;;;17.32;51.07;102820.03;4966378;28;20152;-87
2021/12/21 04:34:34;;;;;;;5.43;2.75;;;;;;;17.32;50.79;102819.16;4994778;28;20042;-85
2021/12/21 04:36:59;;;;;;;5.18;2.33;;;;;;;17.30;50.75;102824.31;4962085;28;20030;-85
2021/12/21 04:41:53;;;;;;;4.45;2.50;;;;;;;17.31;50.87;102828.69;4990458;28;20094;-88
2021/12/21 04:44:18;;;;;;;5.53;2.97;;;;;;;17.31;50.75;102825.19;4954119;28;20039;-88
2021/12/21 04:46:43;;;;;;;5.38;2.70;;;;;;;17.28;50.88;102821.66;4962912;28;20056;-87
2021/12/21 04:49:09;;;;;;;5.10;2.40;;;;;;;17.29;50.55;102825.19;4961731;28;20031;-87
2021/12/21 04:51:34;;;;;;;4.45;2.75;;;;;;;17.29;50.91;102819.97;4947061;28;20084;-87
2021/12/21 04:54:00;;;;;;;4.90;2.33;;;;;;;17.28;50.66;102813.88;4945663;28;20035;-87
2021/12/21 04:56:25;;;;;;;5.03;2.60;;;;;;;17.27;50.63;102817.31;4945099;28;20031;-87
2021/12/21 04:58:50;;;;;;;4.82;2.70;;;;;;;17.27;50.82;102817.31;4961019;28;20129;-87
2021/12/21 05:01:16;;;;;;;5.07;2.60;;;;;;;17.27;50.72;102816.44;4976616;28;20030;-87
2021/12/21 05:03:41;;;;;;;4.88;2.35;;;;;;;17.26;50.55;102807.75;4959758;28;20089;-87
2021/12/21 05:06:07;;;;;;;4.50;2.38;;;;;;;17.27;50.77;102806.03;4960403;28;20034;-87
2021/12/21 05:08:37;;;;;;;4.88;2.58;;;;;;;17.26;51.02;102797.34;4960200;28;20041;-87
2021/12/21 05:11:05;;;;;;;4.75;2.47;;;;;;;17.25;50.62;102797.31;4960743;28;20561;-87
2021/12/21 05:13:36;;;;;;;3.65;2.20;;;;;;;17.25;50.53;102802.53;4976535;28;20030;-87
2021/12/21 05:16:02;;;;;;;4.28;2.40;;;;;;;17.25;50.69;102800.78;4976158;28;20037;-87
2021/12/21 05:18:28;;;;;;;3.78;2.33;;;;;;;17.27;50.74;102803.44;4960029;28;20038;-87
2021/12/21 05:20:54;;;;;;;5.15;2.35;;;;;;;17.27;50.95;102803.44;4976240;28;20022;-87
2021/12/21 05:23:19;;;;;;;4.15;2.40;;;;;;;17.28;50.84;102802.59;4959879;28;20023;-87
2021/12/21 05:25:45;;;;;;;4.20;2.47;;;;;;;17.26;50.38;102797.34;4960125;28;20034;-87
2021/12/21 05:28:14;;;;;;;5.07;2.58;;;;;;;17.27;50.70;102799.09;4959836;28;20038;-87
2021/12/21 05:30:40;;;;;;;3.33;2.30;;;;;;;17.27;50.70;102795.63;4977075;28;20510;-87
2021/12/21 05:33:06;;;;;;;4.50;2.47;;;;;;;17.27;50.60;102799.09;4945208;28;20078;-86
2021/12/21 05:35:34;;;;;;;4.10;2.20;;;;;;;17.25;50.43;102800.78;4959794;28;20030;-87
2021/12/21 05:38:03;;;;;;;4.13;2.28;;;;;;;17.27;50.61;102806.91;4975800;28;20022;-87
2021/12/21 05:40:42;;;;;;;4.68;2.33;;;;;;;17.28;50.69;102810.38;4944724;28;20027;-87
2021/12/21 05:43:09;;;;;;;4.57;2.33;;;;;;;17.27;50.59;102806.03;4961275;28;20034;-87
2021/12/21 05:45:36;;;;;;;4.28;2.47;;;;;;;17.26;50.41;102806.88;4975716;28;20081;-86
2021/12/21 05:48:02;;;;;;;3.92;2.40;;;;;;;17.26;50.51;102817.28;4976740;28;20054;-86
2021/12/21 05:50:28;;;;;;;3.78;2.22;;;;;;;17.25;50.49;102808.59;4975669;28;20053;-86
2021/12/21 05:52:54;;;;;;;4.30;2.40;;;;;;;17.26;50.48;102818.16;4959632;28;20026;-86
2021/12/21 05:55:20;;;;;;;3.65;2.22;;;;;;;17.25;50.45;102813.81;4959202;28;20031;-87
2021/12/21 05:57:46;;;;;;;3.40;2.25;;;;;;;17.26;50.15;102810.34;4975732;28;20075;-86
2021/12/21 06:00:15;;;;;;;3.80;2.28;;;;;;;17.26;50.55;102809.47;4975370;28;20034;-87
2021/12/21 06:02:41;;;;;;;4.05;2.38;;;;;;;17.25;50.58;102819.00;4975290;28;20024;-87
2021/12/21 06:05:07;;;;;;;3.88;2.25;;;;;;;17.26;50.39;102822.47;4975187;28;20448;-87
2021/12/21 06:07:33;;;;;;;3.28;2.10;;;;;;;17.25;50.40;102818.13;4959447;28;20031;-86
2021/12/21 06:10:07;;;;;;;4.47;2.50;;;;;;;17.25;50.50;102821.63;4975249;28;20030;-85
2021/12/21 06:12:56;;;;;;;3.92;2.38;;;;;;;17.25;50.51;102824.22;4960466;28;20078;-86
2021/12/21 07:22:50;;;;;;;3.03;2.00;;;;;;;17.33;50.08;102815.69;5539211;22;20012;31
2021/12/21 07:34:55;;;;;;;9.35;4.20;;;;;;;17.50;50.37;102824.75;6215058;22;20417;31
2021/12/21 07:48:21;;;;;;;8.55;3.97;;;;;;;17.65;50.25;102834.66;5087684;22;20063;-80
2021/12/21 07:50:48;;;;;;;10.63;4.90;;;;;;;17.66;50.10;102832.09;5025214;28;20112;-79
2021/12/21 07:53:15;;;;;;;10.85;5.07;;;;;;;17.68;50.12;102830.41;5025346;28;20060;-79
2021/12/21 07:55:44;;;;;;;13.77;5.30;;;;;;;17.74;50.02;102832.22;5025703;28;20084;-78
2021/12/21 07:58:10;;;;;;;11.55;5.00;;;;;;;17.76;49.91;102842.69;5031911;28;20061;-80
2021/12/21 08:00:38;;;;;;;11.30;4.40;;;;;;;17.77;49.78;102841.81;5024853;28;20480;-80
2021/12/21 08:03:04;;;;;;;12.18;4.75;;;;;;;17.78;49.85;102849.69;5046411;28;20036;-80
2021/12/21 08:05:33;;;;;;;9.43;4.75;;;;;;;17.81;49.79;102839.34;5049471;28;20029;-80
2021/12/21 08:08:18;;;;;;;8.35;4.50;;;;;;;17.81;49.97;102846.25;5013219;28;20408;-80
2021/12/21 08:10:49;;;;;;;12.35;4.80;;;;;;;17.84;49.73;102848.97;5043103;28;20108;-79
2021/12/21 08:13:14;;;;;;;10.77;4.68;;;;;;;17.84;49.80;102859.41;5023253;28;20021;-80
2021/12/21 08:15:40;;;;;;;9.00;4.03;;;;;;;17.85;49.71;102851.59;5026069;28;20033;-81
2021/12/21 08:18:05;;;;;;;9.48;4.13;;;;;;;17.84;49.88;102857.66;5012847;28;20057;-80
2021/12/21 08:20:31;;;;;;;9.50;4.65;;;;;;;17.86;49.68;102848.16;5013219;28;20080;-80
2021/12/21 08:22:57;;;;;;;9.30;4.57;;;;;;;17.86;49.85;102855.09;4998111;28;20025;-79
2021/12/21 08:25:25;;;;;;;11.30;5.03;;;;;;;17.86;49.71;102849.91;5022236;28;20464;-78
2021/12/21 08:27:58;;;;;;;9.30;4.30;;;;;;;17.87;49.86;102849.03;5021847;28;20089;-79
2021/12/21 08:30:25;;;;;;;8.70;4.37;;;;;;;17.86;49.60;102849.91;5003663;28;20029;-79
2021/12/21 08:32:50;;;;;;;8.13;4.57;;;;;;;17.89;49.53;102850.81;5019353;28;20267;-79
2021/12/21 08:35:16;;;;;;;9.65;4.35;;;;;;;17.91;49.73;102845.66;4988395;28;20048;-78
2021/12/21 08:37:48;;;;;;;10.98;4.57;;;;;;;17.92;49.43;102844.81;5021622;28;20140;-79
2021/12/21 08:40:14;;;;;;;8.52;4.53;;;;;;;17.93;49.54;102841.34;5022088;28;20033;-79
2021/12/21 08:42:41;;;;;;;9.48;4.68;;;;;;;17.95;49.48;102841.41;5020158;28;20083;-78
2021/12/21 08:45:07;;;;;;;6.63;4.30;;;;;;;17.96;49.43;102841.41;4987468;28;20033;-79
2021/12/21 08:47:34;;;;;;;8.23;4.63;;;;;;;17.97;49.50;102842.31;4984651;28;20050;-80
2021/12/21 08:49:59;;;;;;;7.20;3.80;;;;;;;17.98;49.47;102846.66;4999817;28;20132;-80
2021/12/21 08:52:25;;;;;;;11.13;4.30;;;;;;;18.00;49.49;102848.44;5002227;28;20105;-80
2021/12/21 08:54:50;;;;;;;8.57;4.78;;;;;;;18.01;49.40;102852.81;4985301;28;20357;-80
2021/12/21 08:57:16;;;;;;;9.52;4.57;;;;;;;18.01;49.29;102855.44;4970643;28;20541;-80
2021/12/21 08:59:42;;;;;;;7.30;4.38;;;;;;;18.02;49.39;102859.78;5002131;28;20551;-80
2021/12/21 09:02:07;;;;;;;7.70;4.03;;;;;;;18.04;49.21;102852.88;4986192;28;20027;-80
2021/12/21 09:04:33;;;;;;;7.70;3.97;;;;;;;18.02;49.46;102856.31;5001128;28;20030;-80
2021/12/21 09:06:59;;;;;;;6.45;3.90;;;;;;;18.03;49.16;102843.31;5001742;28;20084;-80
2021/12/21 09:09:24;;;;;;;6.28;4.43;;;;;;;18.04;49.31;102836.38;5002109;28;20050;-80
2021/12/21 09:11:50;;;;;;;8.15;4.63;;;;;;;18.07;49.40;102839.03;5001502;28;20114;-80
2021/12/21 09:14:17;;;;;;;7.13;4.25;;;;;;;18.06;49.21;102845.97;5002890;28;20053;-80
2021/12/21 09:16:43;;;;;;;7.97;4.55;;;;;;;18.08;49.16;102835.59;4985245;28;20030;-80
2021/12/21 09:19:08;;;;;;;6.47;4.25;;;;;;;18.07;49.33;102839.94;4983063;28;20061;-80
2021/12/21 09:21:34;;;;;;;7.80;4.22;;;;;;;18.08;49.37;102846.00;5001385;28;20023;-80
2021/12/21 09:24:00;;;;;;;9.15;4.03;;;;;;;18.08;49.22;102856.44;5000993;28;20033;-80
2021/12/21 09:26:25;;;;;;;6.80;4.07;;;;;;;18.08;49.44;102854.69;4985600;28;20034;-80
2021/12/21 09:28:56;;;;;;;6.53;3.80;;;;;;;18.11;49.46;102850.41;4999601;28;20038;-80
2021/12/21 09:31:39;;;;;;;;;;;;;;;;;;;;;
2021/12/21 09:34:04;;;;;;;6.72;4.18;;;;;;;18.12;49.29;102866.06;5009517;28;20097;-80
2021/12/21 09:36:32;;;;;;;7.32;4.20;;;;;;;18.12;49.21;102873.88;4985882;28;20111;-80
2021/12/21 09:39:10;;;;;;;6.28;4.00;;;;;;;18.15;49.10;102870.47;5003906;28;20030;-81
2021/12/21 09:41:41;;;;;;;7.75;3.92;;;;;;;18.15;49.02;102868.72;5002793;28;20084;-81
2021/12/21 09:47:33;;;;;;;4.80;3.17;;;;;;;18.14;49.23;102858.25;5010262;28;20066;-80
2021/12/21 09:50:25;;;;;;;;;;;;;;;;;;;;;
2021/12/21 09:53:01;;;;;;;5.75;3.25;;;;;;;18.15;49.09;102870.47;5019020;28;20447;-80
2021/12/21 10:14:24;;;;;;;5.75;3.30;;;;;;;18.14;49.75;102819.19;4810147;26;20070;-82
2021/12/21 12:34:27;;;;;;;4.30;1.90;;;;;;;18.34;49.88;102734.44;4782474;26;20041;-81
2021/12/21 12:36:55;;;;;;;5.45;2.47;;;;;;;18.32;50.00;102732.66;5054032;28;20147;-81
2021/12/21 12:39:59;;;;;;;5.30;2.20;;;;;;;18.33;50.04;102732.66;5076793;28;20046;-81
2021/12/21 14:06:31;;;;;;;6.53;2.63;;;;;;;18.11;49.98;102683.66;6215251;22;21230;31
2021/12/21 14:09:17;;;;;;;3.95;2.35;;;;;;;18.11;50.18;102688.84;5015903;28;20057;-82
2021/12/21 15:21:45;;;;;;;3.28;1.90;;;;;;;18.01;49.98;102704.34;6186014;22;20312;31
2021/12/21 15:24:43;;;;;;;3.65;2.00;;;;;;;18.01;49.79;102704.34;4984676;28;20051;-83
2021/12/21 15:27:12;;;;;;;3.22;1.73;;;;;;;17.99;49.65;102707.75;4962165;28;20043;-80
2021/12/21 17:25:21;;;;;;;5.68;2.38;;;;;;;17.94;49.42;102741.50;5090906;28;20086;-85
2021/12/21 17:27:47;;;;;;;5.00;2.30;;;;;;;17.96;49.40;102746.75;5026797;28;20074;-82
2021/12/21 17:30:13;;;;;;;12.20;2.45;;;;;;;17.97;49.45;102743.31;5066594;28;20056;-82
2021/12/21 17:32:40;;;;;;;8.48;2.47;;;;;;;17.98;49.44;102734.66;5050264;28;20397;-80
2021/12/21 17:35:10;;;;;;;8.80;2.75;;;;;;;18.02;49.25;102745.16;5081314;28;20086;-81
2021/12/21 17:37:50;;;;;;;5.53;2.63;;;;;;;18.03;49.31;102743.41;5070593;28;20058;-83
2021/12/21 17:40:20;;;;;;;7.45;2.70;;;;;;;18.03;49.19;102739.09;5070729;28;20021;-82
2021/12/21 17:43:16;;;;;;;5.20;2.50;;;;;;;18.02;49.09;102736.47;5090386;28;20024;-84
2021/12/21 17:45:42;;;;;;;5.95;3.03;;;;;;;17.98;49.28;102743.34;5084888;28;20099;-77
2021/12/21 17:48:10;;;;;;;4.40;2.70;;;;;;;17.99;49.18;102736.41;5062707;28;20544;-81
2021/12/21 17:50:35;;;;;;;10.52;2.90;;;;;;;17.98;49.24;102734.66;5064650;28;20017;-79
2021/12/21 17:53:01;;;;;;;4.55;2.67;;;;;;;17.97;49.36;102732.91;5029317;28;20097;-81
2021/12/21 17:55:26;;;;;;;6.05;2.60;;;;;;;17.98;49.29;102745.06;5047080;28;20032;-81
2021/12/21 17:57:55;;;;;;;5.80;3.13;;;;;;;17.98;49.45;102740.72;5049768;28;20028;-77
2021/12/21 18:00:21;;;;;;;7.28;3.00;;;;;;;17.97;49.55;102744.19;5049634;28;20386;-79
2021/12/21 18:02:47;;;;;;;9.80;2.85;;;;;;;17.99;49.52;102736.41;5030080;28;20024;-80
2021/12/21 18:05:15;;;;;;;4.88;2.70;;;;;;;18.01;49.75;102742.53;5046022;28;20538;-79
2021/12/21 18:07:42;;;;;;;8.77;3.17;;;;;;;18.02;49.83;102739.06;5043832;28;20051;-80
2021/12/21 18:10:11;;;;;;;6.07;2.80;;;;;;;18.02;49.90;102744.28;5042598;28;20021;-80
2021/12/21 18:12:38;;;;;;;5.15;2.95;;;;;;;18.02;50.29;102741.69;5050602;28;20017;-77
2021/12/21 18:15:04;;;;;;;6.65;3.13;;;;;;;18.01;50.20;102742.53;5050901;28;20019;-78
2021/12/21 18:17:32;;;;;;;4.25;2.85;;;;;;;18.02;50.57;102744.28;5051312;28;20041;-77
2021/12/21 18:19:58;;;;;;;5.47;2.97;;;;;;;18.02;50.50;102741.69;5028693;28;20426;-78
2021/12/21 18:22:26;;;;;;;4.05;2.90;;;;;;;17.99;50.31;102742.50;5048836;28;20094;-83
2021/12/21 18:24:52;;;;;;;5.88;3.20;;;;;;;17.96;50.31;102741.56;5066427;28;20063;-80
2021/12/21 18:27:18;;;;;;;4.78;2.90;;;;;;;17.94;50.44;102732.81;5050637;28;20029;-81
2021/12/21 18:29:46;;;;;;;4.53;3.20;;;;;;;17.93;50.30;102736.28;5067916;28;20529;-79
2021/12/21 18:32:19;;;;;;;4.90;2.83;;;;;;;17.91;50.57;102744.06;5050066;28;20548;-81
2021/12/21 18:34:45;;;;;;;5.77;2.87;;;;;;;17.91;50.38;102736.25;5047728;28;20375;-80
2021/12/21 18:37:12;;;;;;;4.20;3.10;;;;;;;17.88;50.37;102733.59;5048106;28;20327;-81
2021/12/21 18:39:38;;;;;;;5.03;2.80;;;;;;;17.88;50.48;102736.22;5050472;28;20024;-81
2021/12/21 18:42:15;;;;;;;4.28;2.80;;;;;;;17.86;50.11;102736.16;5072553;28;20017;-83
2021/12/21 18:44:41;;;;;;;5.25;3.10;;;;;;;17.86;50.46;102727.50;5022906;28;20052;-83
2021/12/21 18:47:09;;;;;;;6.05;2.67;;;;;;;17.86;50.40;102724.88;5015705;28;20403;-83
2021/12/21 18:49:38;;;;;;;5.82;3.08;;;;;;;17.84;50.26;102724.84;5032948;28;20113;-83
2021/12/21 18:52:08;;;;;;;4.55;2.90;;;;;;;17.83;50.17;102722.19;5048707;28;20032;-82
2021/12/21 18:54:36;;;;;;;4.50;2.80;;;;;;;17.83;50.37;102732.63;5049389;28;20049;-81
2021/12/21 18:57:08;;;;;;;6.07;3.20;;;;;;;17.82;50.43;102733.47;5031351;28;20036;-82
2021/12/21 18:59:35;;;;;;;5.40;3.30;;;;;;;17.81;50.10;102732.56;5047618;28;20021;-82
2021/12/21 19:02:00;;;;;;;6.00;3.05;;;;;;;17.80;50.38;102730.81;5045661;28;20028;-82
2021/12/21 19:04:26;;;;;;;3.83;2.70;;;;;;;17.81;50.07;102732.56;5044045;28;20028;-81
2021/12/21 19:06:52;;;;;;;5.85;2.97;;;;;;;17.80;49.90;102729.94;5028879;28;20364;-83
2021/12/21 19:09:20;;;;;;;4.97;3.10;;;;;;;17.79;50.15;102728.16;5046515;28;20024;-81
2021/12/21 19:11:46;;;;;;;4.72;2.72;;;;;;;17.79;50.25;102733.38;5063559;28;20029;-81
2021/12/21 19:14:12;;;;;;;4.07;3.00;;;;;;;17.78;50.22;102731.63;5063786;28;20033;-80
2021/12/21 19:16:41;;;;;;;9.98;3.78;;;;;;;17.77;49.98;102730.75;5053432;28;20123;-82
2021/12/21 19:19:07;;;;;;;4.90;3.13;;;;;;;17.76;49.99;102733.31;5040154;28;20008;-84
2021/12/21 19:21:36;;;;;;;4.22;3.00;;;;;;;17.76;50.21;102739.41;5058210;28;20029;-82
2021/12/21 19:24:07;;;;;;;4.97;3.33;;;;;;;17.77;49.91;102735.06;5052538;28;20059;-81
2021/12/21 19:26:34;;;;;;;4.53;2.97;;;;;;;17.75;49.95;102735.06;5033527;28;20029;-82
2021/12/21 19:29:03;;;;;;;4.78;3.33;;;;;;;17.75;50.33;102735.06;5063702;28;20523;-81
2021/12/21 19:31:28;;;;;;;3.67;2.80;;;;;;;17.75;49.99;102732.44;5045273;28;20029;-80
2021/12/21 19:33:56;;;;;;;5.35;3.45;;;;;;;17.73;50.07;102739.34;5020944;28;20064;-81
2021/12/21 19:36:22;;;;;;;4.38;2.83;;;;;;;17.73;49.81;102741.97;5022330;28;20034;-81
2021/12/21 19:38:49;;;;;;;4.60;3.10;;;;;;;17.73;49.73;102733.28;5006568;28;20132;-80
2021/12/21 19:41:18;;;;;;;5.03;3.10;;;;;;;17.71;49.80;102738.44;5007506;28;20423;-80
2021/12/21 19:44:12;;;;;;;4.82;2.90;;;;;;;17.71;49.95;102734.97;5006926;28;20033;-79
2021/12/21 19:46:38;;;;;;;;;;;;;;;17.71;49.83;102741.03;5042842;28;20029;-80
2021/12/21 19:49:04;;;;;;;5.43;3.20;;;;;;;17.72;49.83;102742.78;5040613;28;19936;-81
2021/12/21 19:51:29;;;;;;;3.50;2.67;;;;;;;17.74;49.77;102738.50;5041417;28;20038;-81
2021/12/21 19:53:55;;;;;;;4.32;3.03;;;;;;;17.76;49.96;102738.53;5021473;28;20064;-81
2021/12/21 19:56:21;;;;;;;6.03;2.97;;;;;;;17.75;49.78;102737.66;5021354;28;20490;-80
2021/12/21 19:58:47;;;;;;;4.40;3.13;;;;;;;17.77;49.76;102729.84;5006284;28;20116;-79
2021/12/21 20:01:16;;;;;;;4.00;3.00;;;;;;;17.78;49.60;102732.50;5024415;28;20064;-80
2021/12/21 20:04:20;;;;;;;4.72;3.08;;;;;;;17.78;49.43;102732.50;5035245;28;20049;-86
2021/12/21 20:07:07;;;;;;;4.87;3.13;;;;;;;17.79;49.38;102742.09;4974166;28;20046;-83
2021/12/21 20:09:36;;;;;;;4.70;3.20;;;;;;;17.80;49.79;102741.22;4973423;28;20026;-83
2021/12/21 20:12:07;;;;;;;4.38;3.00;;;;;;;17.79;49.66;102743.78;4975683;28;20034;-81
2021/12/21 20:40:21;;;;;;;4.78;3.00;;;;;;;17.74;49.68;102743.69;4157233;26;20046;-82
2021/12/21 20:43:18;;;;;;;3.97;2.60;;;;;;;17.74;49.47;102738.50;5037718;28;20050;-85
2021/12/21 20:45:51;;;;;;;4.03;2.78;;;;;;;17.73;49.50;102739.34;5025457;28;20049;-81
2021/12/21 20:48:22;;;;;;;4.38;2.95;;;;;;;17.72;49.73;102742.78;5018197;28;20048;-82
2021/12/21 20:50:48;;;;;;;4.00;3.05;;;;;;;17.72;49.74;102736.72;5033981;28;20060;-81
2021/12/21 20:53:16;;;;;;;8.20;3.25;;;;;;;17.71;49.74;102730.63;5019427;28;20025;-82
2021/12/21 20:55:52;;;;;;;5.32;3.28;;;;;;;17.71;49.59;102729.75;5019291;28;20102;-84
2021/12/21 20:58:22;;;;;;;3.65;2.60;;;;;;;17.71;49.56;102737.56;5021568;28;20057;-83
2021/12/21 21:07:20;;;;;;;4.22;3.10;;;;;;;17.67;49.61;102726.19;4998908;28;20030;-87
2021/12/21 21:09:47;;;;;;;3.92;2.85;;;;;;;17.67;49.81;102726.19;4997897;28;20038;-88
2021/12/21 21:27:54;;;;;;;3.83;2.95;;;;;;;17.63;49.40;102733.06;5475301;22;20045;-87
2021/12/21 21:30:21;;;;;;;4.15;3.00;;;;;;;17.63;49.43;102726.97;5056945;28;20092;-83
2021/12/21 21:33:31;;;;;;;4.32;3.00;;;;;;;17.62;49.43;102726.13;5040668;28;20025;-82
2021/12/21 21:36:39;;;;;;;4.43;3.05;;;;;;;17.62;49.39;102736.53;5072814;28;20017;-84
2021/12/21 22:13:17;;;;;;;3.92;2.92;;;;;;;17.56;49.24;102718.19;5045540;28;20167;-81